createdAt,value
2022-10-24T00:00:58.707Z,100431.97
2022-10-24T00:03:30.703Z,100441.63
2022-10-24T00:06:02.195Z,100434.78
2022-10-24T00:08:33.994Z,100459.38
2022-10-24T00:11:05.488Z,100474.84
2022-10-24T00:13:37.364Z,100483.38
2022-10-24T00:16:08.848Z,100487.34
2022-10-24T00:18:40.683Z,100478.19
2022-10-24T00:21:12.167Z,100466.41
2022-10-24T00:23:44.157Z,100460.59
2022-10-24T00:26:17.058Z,100448.94
2022-10-24T00:28:48.593Z,100452.22
2022-10-24T00:31:20.250Z,100448.94
2022-10-24T00:33:51.736Z,100451.53
2022-10-24T00:36:23.560Z,100437.94
2022-10-24T00:38:55.044Z,100438.41
2022-10-24T00:41:27.091Z,100444.00
2022-10-24T00:43:58.582Z,100445.06
2022-10-24T00:46:30.443Z,100456.25
2022-10-24T00:49:01.922Z,100446.84
2022-10-24T00:51:33.783Z,100232.69
2022-10-24T00:54:05.281Z,100465.56
2022-10-24T00:56:37.111Z,100477.00
2022-10-24T00:59:08.598Z,100472.69
2022-10-24T01:01:40.285Z,100469.28
2022-10-24T01:04:11.800Z,100471.72
2022-10-24T01:06:43.348Z,100478.22
2022-10-24T01:09:14.831Z,100469.13
2022-10-24T01:11:46.689Z,100471.00
2022-10-24T01:14:18.177Z,100466.22
2022-10-24T01:16:50.045Z,100460.88
2022-10-24T01:19:21.536Z,100470.75
2022-10-24T01:21:53.333Z,100470.19
2022-10-24T01:24:24.822Z,100465.09
2022-10-24T01:26:56.572Z,100457.88
2022-10-24T01:29:28.086Z,100179.75
2022-10-24T01:31:59.987Z,100425.19
2022-10-24T01:34:31.460Z,100433.47
2022-10-24T01:37:03.378Z,100431.84
2022-10-24T01:39:34.871Z,100432.31
2022-10-24T01:42:06.662Z,100437.34
2022-10-24T01:44:38.141Z,100433.28
2022-10-24T01:47:09.933Z,100434.34
2022-10-24T01:49:41.425Z,100438.88
2022-10-24T01:54:49.869Z,100413.19
2022-10-24T01:57:21.742Z,100408.88
2022-10-24T01:59:53.234Z,100394.69
2022-10-24T02:02:25.068Z,100389.03
2022-10-24T02:04:56.548Z,100385.78
2022-10-24T02:07:28.378Z,100391.25
2022-10-24T02:10:04.700Z,100392.47
2022-10-24T02:12:36.806Z,100392.88
2022-10-24T02:15:08.321Z,100387.03
2022-10-24T02:17:40.179Z,100397.72
2022-10-24T02:20:11.667Z,100398.03
2022-10-24T02:22:43.591Z,100171.22
2022-10-24T02:25:15.080Z,100391.72
2022-10-24T02:27:47.192Z,100396.50
2022-10-24T02:30:19.179Z,100393.97
2022-10-24T02:32:50.949Z,100388.28
2022-10-24T02:35:22.449Z,100380.59
2022-10-24T02:37:54.424Z,100373.16
2022-10-24T02:40:26.041Z,100372.34
2022-10-24T02:42:58.707Z,100374.53
2022-10-24T02:45:30.208Z,100367.00
2022-10-24T02:48:02.875Z,100364.09
2022-10-24T02:50:34.393Z,100362.22
2022-10-24T02:53:06.368Z,100365.84
2022-10-24T02:55:38.361Z,100373.75
2022-10-24T02:58:10.415Z,100376.91
2022-10-24T03:00:42.014Z,100372.28
2022-10-24T03:03:13.892Z,100367.28
2022-10-24T03:05:45.419Z,100365.41
2022-10-24T03:08:17.244Z,100371.09
2022-10-24T03:10:48.764Z,100371.31
2022-10-24T03:13:20.599Z,100362.50
2022-10-24T03:15:52.117Z,100366.53
2022-10-24T03:18:23.949Z,100372.13
2022-10-24T03:20:55.846Z,100380.63
2022-10-24T03:23:28.617Z,100372.03
2022-10-24T03:26:00.458Z,100374.94
2022-10-24T03:28:31.964Z,100367.66
2022-10-24T03:31:03.798Z,100373.00
2022-10-24T03:33:35.312Z,100368.94
2022-10-24T03:36:07.191Z,100370.22
2022-10-24T03:38:38.676Z,100364.06
2022-10-24T03:41:10.641Z,100364.31
2022-10-24T03:43:42.127Z,100367.31
2022-10-24T03:46:13.958Z,100364.88
2022-10-24T03:48:45.461Z,100360.34
2022-10-24T03:51:17.262Z,100362.78
2022-10-24T03:53:48.796Z,100368.13
2022-10-24T03:56:20.602Z,100375.56
2022-10-24T03:58:52.091Z,100368.94
2022-10-24T04:01:24.758Z,100379.28
2022-10-24T04:03:56.321Z,100377.69
2022-10-24T04:06:30.277Z,100395.31
2022-10-24T04:09:04.141Z,100371.75
2022-10-24T04:11:35.941Z,100372.81
2022-10-24T04:14:09.462Z,100380.81
2022-10-24T04:16:41.204Z,100381.88
2022-10-24T04:19:12.763Z,100369.56
2022-10-24T04:21:44.673Z,100365.28
2022-10-24T04:24:16.174Z,100370.38
2022-10-24T04:26:48.018Z,100369.56
2022-10-24T04:29:19.527Z,100367.47
2022-10-24T04:31:51.312Z,100367.56
2022-10-24T04:34:22.821Z,100361.97
2022-10-24T04:36:54.637Z,100372.44
2022-10-24T04:39:26.130Z,100374.06
2022-10-24T04:41:57.965Z,100370.91
2022-10-24T04:44:29.525Z,100373.34
2022-10-24T04:47:01.075Z,100368.78
2022-10-24T04:49:32.565Z,100366.13
2022-10-24T04:52:04.067Z,100369.59
2022-10-24T04:54:35.564Z,100380.06
2022-10-24T04:57:07.076Z,100381.91
2022-10-24T04:59:38.639Z,100383.22
2022-10-24T05:02:10.196Z,100394.13
2022-10-24T05:04:41.790Z,100406.69
2022-10-24T05:07:13.347Z,100405.31
2022-10-24T05:09:44.852Z,100409.84
2022-10-24T05:12:16.483Z,100410.66
2022-10-24T05:14:48.097Z,100401.25
2022-10-24T05:17:20.083Z,100395.66
2022-10-24T05:19:51.563Z,100395.09
2022-10-24T05:22:24.481Z,100402.28
2022-10-24T05:24:55.992Z,100406.00
2022-10-24T05:27:27.963Z,100409.50
2022-10-24T05:29:59.472Z,100397.75
2022-10-24T05:32:32.824Z,100400.19
2022-10-24T05:35:06.362Z,100393.22
2022-10-24T05:37:38.882Z,100391.59
2022-10-24T05:40:10.505Z,100378.81
2022-10-24T05:42:42.270Z,100377.19
2022-10-24T05:45:14.257Z,100373.72
2022-10-24T05:47:46.022Z,100371.03
2022-10-24T05:50:18.038Z,100140.44
2022-10-24T05:52:49.576Z,100373.84
2022-10-24T05:55:21.093Z,100379.44
2022-10-24T05:57:52.598Z,100379.69
2022-10-24T06:00:24.139Z,100382.91
2022-10-24T06:02:55.657Z,100370.38
2022-10-24T06:05:27.162Z,100372.81
2022-10-24T06:07:58.653Z,100378.72
2022-10-24T06:10:30.159Z,100374.44
2022-10-24T06:13:01.669Z,100368.59
2022-10-24T06:15:33.172Z,100360.13
2022-10-24T06:18:04.695Z,100360.22
2022-10-24T06:20:36.256Z,100363.44
2022-10-24T06:23:07.753Z,100368.00
2022-10-24T06:25:39.613Z,100370.75
2022-10-24T06:28:12.365Z,100372.13
2022-10-24T06:30:44.223Z,100381.66
2022-10-24T06:33:15.703Z,100376.97
2022-10-24T06:35:47.269Z,100381.94
2022-10-24T06:38:18.802Z,100385.59
2022-10-24T06:40:50.308Z,100387.22
2022-10-24T06:43:21.818Z,100380.88
2022-10-24T06:45:53.365Z,100391.38
2022-10-24T06:48:24.852Z,100393.81
2022-10-24T06:50:56.426Z,100391.03
2022-10-24T06:53:27.979Z,100391.69
2022-10-24T06:55:59.470Z,100393.09
2022-10-24T06:58:30.971Z,100403.47
2022-10-24T07:01:02.541Z,100413.50
2022-10-24T07:03:34.107Z,100418.38
2022-10-24T07:06:05.638Z,100420.56
2022-10-24T07:08:37.143Z,100426.00
2022-10-24T07:11:08.651Z,100420.34
2022-10-24T07:13:40.145Z,100429.03
2022-10-24T07:16:11.674Z,100428.63
2022-10-24T07:18:43.166Z,100421.84
2022-10-24T07:21:14.673Z,100415.31
2022-10-24T07:23:46.178Z,100417.13
2022-10-24T07:26:17.786Z,100403.75
2022-10-24T07:28:53.370Z,100408.13
2022-10-24T07:31:24.983Z,100412.50
2022-10-24T07:33:56.513Z,100424.81
2022-10-24T07:36:28.566Z,100429.13
2022-10-24T07:39:00.108Z,100434.69
2022-10-24T07:41:31.640Z,100438.59
2022-10-24T07:44:03.192Z,100440.59
2022-10-24T07:46:35.221Z,100439.38
2022-10-24T07:49:06.855Z,100431.31
2022-10-24T07:51:38.674Z,100434.09
2022-10-24T07:54:10.226Z,100443.31
2022-10-24T07:56:41.939Z,100440.38
2022-10-24T07:59:23.961Z,100435.31
2022-10-24T08:02:04.931Z,100430.91
2022-10-24T08:04:36.437Z,100433.88
2022-10-24T08:07:13.719Z,100428.88
2022-10-24T08:09:45.536Z,100131.88
2022-10-24T08:12:17.338Z,100418.22
2022-10-24T08:14:48.906Z,100431.25
2022-10-24T08:17:21.577Z,100430.47
2022-10-24T08:19:53.810Z,100434.03
2022-10-24T08:25:25.406Z,100423.72
2022-10-24T08:27:56.923Z,100424.88
2022-10-24T08:33:18.665Z,100425.50
2022-10-24T08:35:51.563Z,100426.59
2022-10-24T08:38:23.237Z,100418.06
2022-10-24T08:40:54.949Z,100426.63
2022-10-24T08:43:26.436Z,100429.66
2022-10-24T08:45:57.898Z,100427.28
2022-10-24T08:48:29.411Z,100425.13
2022-10-24T08:51:03.223Z,100411.13
2022-10-24T08:53:43.714Z,100418.44
2022-10-24T08:56:18.303Z,100418.16
2022-10-24T08:58:51.826Z,100413.34
2022-10-24T09:01:23.377Z,100405.50
2022-10-24T09:03:56.463Z,100407.41
2022-10-24T09:06:28.981Z,100407.13
2022-10-24T09:09:00.448Z,100400.69
2022-10-24T09:11:32.904Z,100400.94
2022-10-24T09:14:04.373Z,100408.16
2022-10-24T09:16:35.849Z,100405.47
2022-10-24T09:19:07.318Z,100416.00
2022-10-24T09:21:39.068Z,100414.09
2022-10-24T09:24:10.531Z,100417.63
2022-10-24T09:26:44.228Z,100413.28
2022-10-24T09:29:15.772Z,100414.06
2022-10-24T09:31:50.211Z,100412.69
2022-10-24T09:34:21.714Z,100410.03
2022-10-24T09:36:53.534Z,100411.63
2022-10-24T09:39:25.066Z,100412.84
2022-10-24T09:41:56.918Z,100412.84
2022-10-24T09:44:28.383Z,100412.78
2022-10-24T09:47:00.204Z,100422.25
2022-10-24T09:49:31.709Z,100422.25
2022-10-24T09:52:03.750Z,100420.59
2022-10-24T09:54:35.268Z,100427.88
2022-10-24T09:57:08.145Z,100428.94
2022-10-24T09:59:41.856Z,100413.06
2022-10-24T10:02:14.157Z,100418.16
2022-10-24T10:04:45.700Z,100418.13
2022-10-24T10:07:17.173Z,100402.69
2022-10-24T10:09:51.603Z,100413.97
2022-10-24T10:12:26.937Z,100404.31
2022-10-24T10:14:58.764Z,100405.97
2022-10-24T10:17:33.332Z,100406.41
2022-10-24T10:20:05.174Z,100401.25
2022-10-24T10:22:36.641Z,100401.09
2022-10-24T10:25:08.439Z,100406.78
2022-10-24T10:27:39.913Z,100408.81
2022-10-24T10:30:11.806Z,100405.53
2022-10-24T10:32:43.268Z,100411.31
2022-10-24T10:35:15.226Z,100400.94
2022-10-24T10:37:46.989Z,100337.50
2022-10-24T10:40:19.004Z,100397.06
2022-10-24T10:42:50.576Z,100402.50
2022-10-24T10:45:22.380Z,100400.72
2022-10-24T10:47:53.828Z,100402.94
2022-10-24T10:50:25.610Z,100406.44
2022-10-24T10:52:57.087Z,100409.41
2022-10-24T10:55:29.014Z,100406.13
2022-10-24T10:58:00.467Z,100394.03
2022-10-24T11:00:32.424Z,100397.19
2022-10-24T11:03:03.937Z,100404.13
2022-10-24T11:05:35.872Z,100395.84
2022-10-24T11:08:07.337Z,100394.69
2022-10-24T11:10:39.156Z,100394.28
2022-10-24T11:13:10.612Z,100388.78
2022-10-24T11:15:42.395Z,100396.94
2022-10-24T11:18:13.859Z,100401.25
2022-10-24T11:20:45.879Z,100410.66
2022-10-24T11:23:17.330Z,100402.19
2022-10-24T11:25:49.289Z,100396.97
2022-10-24T11:28:20.740Z,100391.53
2022-10-24T11:30:52.536Z,100393.81
2022-10-24T11:33:24.015Z,100386.78
2022-10-24T11:35:55.867Z,100385.19
2022-10-24T11:38:27.371Z,100391.59
2022-10-24T11:41:00.244Z,100388.34
2022-10-24T11:43:33.032Z,100384.41
2022-10-24T11:46:04.929Z,100382.03
2022-10-24T11:48:36.673Z,100375.09
2022-10-24T11:51:08.157Z,100370.91
2022-10-24T11:53:39.943Z,100370.78
2022-10-24T11:56:12.101Z,100370.31
2022-10-24T11:58:43.979Z,100367.31
2022-10-24T12:01:15.482Z,100358.19
2022-10-24T12:03:47.274Z,100367.97
2022-10-24T12:06:18.748Z,100371.72
2022-10-24T12:08:50.511Z,100369.16
2022-10-24T12:11:21.996Z,100362.28
2022-10-24T12:13:53.551Z,100367.72
2022-10-24T12:16:25.254Z,100360.78
2022-10-24T12:18:57.056Z,100356.53
2022-10-24T12:21:28.557Z,100359.69
2022-10-24T12:24:00.493Z,100358.28
2022-10-24T12:26:31.966Z,100350.13
2022-10-24T12:29:03.755Z,100339.66
2022-10-24T12:31:35.252Z,100345.47
2022-10-24T12:34:07.170Z,100348.25
2022-10-24T12:36:38.628Z,100336.72
2022-10-24T12:39:10.648Z,100325.53
2022-10-24T12:41:42.185Z,100329.41
2022-10-24T12:44:14.012Z,100323.94
2022-10-24T12:46:45.480Z,100324.22
2022-10-24T12:49:16.956Z,100324.06
2022-10-24T12:51:48.451Z,100327.78
2022-10-24T12:54:21.251Z,100319.81
2022-10-24T12:56:52.752Z,100329.91
2022-10-24T12:59:24.546Z,100323.03
2022-10-24T13:01:59.943Z,100331.53
2022-10-24T13:04:34.133Z,100325.31
2022-10-24T13:07:05.639Z,100320.16
2022-10-24T13:09:37.695Z,100316.72
2022-10-24T13:12:09.166Z,100321.16
2022-10-24T13:14:40.744Z,100311.31
2022-10-24T13:17:12.233Z,100331.00
2022-10-24T13:19:43.892Z,100321.84
2022-10-24T13:22:15.350Z,100320.16
2022-10-24T13:24:46.837Z,100317.69
2022-10-24T13:27:18.302Z,100322.75
2022-10-24T13:29:49.844Z,100324.38
2022-10-24T13:32:21.947Z,100328.28
2022-10-24T13:34:53.458Z,100322.34
2022-10-24T13:37:24.918Z,100321.63
2022-10-24T13:39:56.436Z,100321.63
2022-10-24T13:42:27.961Z,100327.78
2022-10-24T13:44:59.926Z,100328.22
2022-10-24T13:47:31.482Z,100335.56
2022-10-24T13:50:03.042Z,100344.47
2022-10-24T13:52:34.607Z,100326.97
2022-10-24T13:55:06.443Z,100345.19
2022-10-24T13:57:38.258Z,100345.94
2022-10-24T14:00:10.022Z,100345.19
2022-10-24T14:02:41.715Z,100348.13
2022-10-24T14:05:13.202Z,100343.06
2022-10-24T14:07:44.654Z,100334.84
2022-10-24T14:10:19.774Z,100331.41
2022-10-24T14:12:56.864Z,100326.00
2022-10-24T14:15:28.391Z,100336.53
2022-10-24T14:17:59.871Z,100324.69
2022-10-24T14:20:31.419Z,100332.81
2022-10-24T14:23:15.827Z,100330.59
2022-10-24T14:25:47.317Z,100327.00
2022-10-24T14:28:20.851Z,100326.44
2022-10-24T14:30:52.329Z,100336.00
2022-10-24T14:33:23.849Z,100205.84
2022-10-24T14:35:57.856Z,100341.47
2022-10-24T14:38:29.793Z,100352.56
2022-10-24T14:41:08.774Z,100359.75
2022-10-24T14:43:42.494Z,100358.59
2022-10-24T14:46:14.360Z,100363.94
2022-10-24T14:48:46.223Z,100358.31
2022-10-24T14:51:18.758Z,100356.81
2022-10-24T14:53:51.365Z,100355.25
2022-10-24T14:56:22.885Z,100352.25
2022-10-24T14:58:54.783Z,100351.69
2022-10-24T15:01:26.361Z,100353.72
2022-10-24T15:03:58.234Z,100349.06
2022-10-24T15:06:30.150Z,100356.16
2022-10-24T15:09:04.619Z,100353.25
2022-10-24T15:11:36.548Z,100350.06
2022-10-24T15:14:08.491Z,100348.25
2022-10-24T15:16:40.729Z,100361.25
2022-10-24T15:19:12.255Z,100356.41
2022-10-24T15:21:43.738Z,100369.69
2022-10-24T15:24:15.774Z,100362.75
2022-10-24T15:26:47.316Z,100359.81
2022-10-24T15:29:19.091Z,100364.16
2022-10-24T15:31:50.592Z,100354.16
2022-10-24T15:34:22.565Z,100353.41
2022-10-24T15:36:54.109Z,100349.91
2022-10-24T15:39:25.681Z,100356.13
2022-10-24T15:41:57.298Z,100356.13
2022-10-24T15:44:29.280Z,100365.03
2022-10-24T15:47:01.237Z,100362.09
2022-10-24T15:49:33.110Z,100369.41
2022-10-24T15:52:04.606Z,100367.00
2022-10-24T15:54:36.106Z,100366.47
2022-10-24T15:57:07.593Z,100380.47
2022-10-24T15:59:39.090Z,100372.41
2022-10-24T16:02:10.624Z,100378.31
2022-10-24T16:04:42.656Z,100377.22
2022-10-24T16:07:14.202Z,100383.16
2022-10-24T16:09:46.021Z,100387.47
2022-10-24T16:12:17.529Z,100378.84
2022-10-24T16:14:49.339Z,100386.94
2022-10-24T16:17:20.874Z,100378.59
2022-10-24T16:19:52.675Z,100389.91
2022-10-24T16:22:24.188Z,100390.44
2022-10-24T16:24:55.717Z,100392.06
2022-10-24T16:27:27.219Z,100394.47
2022-10-24T16:29:58.760Z,100389.88
2022-10-24T16:32:30.262Z,100391.22
2022-10-24T16:35:02.056Z,100390.69
2022-10-24T16:37:33.518Z,100392.25
2022-10-24T16:40:05.413Z,100396.03
2022-10-24T16:42:36.922Z,100396.28
2022-10-24T16:45:08.765Z,100393.34
2022-10-24T16:47:40.267Z,100399.25
2022-10-24T16:50:12.261Z,100401.94
2022-10-24T16:52:44.856Z,100406.25
2022-10-24T16:55:16.898Z,100403.56
2022-10-24T16:57:48.646Z,100412.44
2022-10-24T17:00:20.305Z,100412.16
2022-10-24T17:02:51.905Z,100413.25
2022-10-24T17:05:23.858Z,100418.88
2022-10-24T17:07:55.737Z,100416.47
2022-10-24T17:10:27.242Z,100414.84
2022-10-24T17:13:01.281Z,100414.84
2022-10-24T17:15:32.767Z,100414.78
2022-10-24T17:18:04.842Z,100418.03
2022-10-24T17:20:36.358Z,100421.50
2022-10-24T17:23:08.273Z,100420.44
2022-10-24T17:25:39.775Z,100411.53
2022-10-24T17:28:11.760Z,100414.22
2022-10-24T17:30:43.303Z,100415.81
2022-10-24T17:33:15.297Z,100413.13
2022-10-24T17:35:47.312Z,100406.66
2022-10-24T17:38:19.338Z,100415.78
2022-10-24T17:40:50.862Z,100415.78
2022-10-24T17:43:22.750Z,100419.00
2022-10-24T17:45:54.245Z,100424.66
2022-10-24T17:48:26.102Z,100427.56
2022-10-24T17:50:57.570Z,100424.34
2022-10-24T17:53:29.139Z,100435.63
2022-10-24T17:56:00.655Z,100435.59
2022-10-24T17:58:32.755Z,100431.81
2022-10-24T18:01:04.366Z,100428.84
2022-10-24T18:03:36.399Z,100280.47
2022-10-24T18:06:07.979Z,100434.97
2022-10-24T18:08:39.812Z,100430.69
2022-10-24T18:11:12.803Z,100440.34
2022-10-24T18:13:44.626Z,100445.72
2022-10-24T18:16:16.614Z,100448.09
2022-10-24T18:18:48.175Z,100444.03
2022-10-24T18:21:19.899Z,100448.53
2022-10-24T18:23:51.969Z,100461.41
2022-10-24T18:26:23.509Z,100452.00
2022-10-24T18:28:55.352Z,100450.38
2022-10-24T18:31:26.858Z,100460.03
2022-10-24T18:33:58.769Z,100450.91
2022-10-24T18:36:30.277Z,100453.59
2022-10-24T18:39:02.341Z,100454.09
2022-10-24T18:41:34.051Z,100458.97
2022-10-24T18:44:06.016Z,100458.44
2022-10-24T18:46:38.302Z,100456.56
2022-10-24T18:49:10.161Z,100452.78
2022-10-24T18:51:41.673Z,100451.72
2022-10-24T18:54:13.509Z,100446.59
2022-10-24T18:56:46.638Z,100443.41
2022-10-24T18:59:18.438Z,100452.78
2022-10-24T19:01:50.114Z,100454.09
2022-10-24T19:04:22.156Z,100455.97
2022-10-24T19:06:53.660Z,100457.31
2022-10-24T19:09:25.507Z,100455.69
2022-10-24T19:11:56.986Z,100456.00
2022-10-24T19:14:28.858Z,100455.25
2022-10-24T19:17:01.393Z,100450.94
2022-10-24T19:19:34.841Z,100455.75
2022-10-24T19:22:06.437Z,100454.94
2022-10-24T19:24:38.305Z,100455.78
2022-10-24T19:27:09.863Z,100446.63
2022-10-24T19:29:41.746Z,100451.19
2022-10-24T19:32:13.251Z,100448.25
2022-10-24T19:34:45.131Z,100449.88
2022-10-24T19:37:16.629Z,100445.59
2022-10-24T19:39:48.779Z,100453.09
2022-10-24T19:42:20.274Z,100456.31
2022-10-24T19:44:54.602Z,100454.16
2022-10-24T19:47:26.294Z,100449.59
2022-10-24T19:49:58.112Z,100449.06
2022-10-24T19:52:29.827Z,100446.91
2022-10-24T19:55:01.694Z,100452.81
2022-10-24T19:57:33.539Z,100446.84
2022-10-24T20:00:05.039Z,100454.13
2022-10-24T20:02:36.556Z,100452.25
2022-10-24T20:05:08.062Z,100451.41
2022-10-24T20:07:39.906Z,100455.16
2022-10-24T20:10:11.523Z,100453.81
2022-10-24T20:12:43.232Z,100462.38
2022-10-24T20:15:15.758Z,100465.34
2022-10-24T20:17:47.559Z,100463.41
2022-10-24T20:20:19.788Z,100465.31
2022-10-24T20:22:51.695Z,100463.06
2022-10-24T20:25:23.175Z,100463.31
2022-10-24T20:27:54.720Z,100467.81
2022-10-24T20:30:26.191Z,100465.94
2022-10-24T20:32:57.703Z,100476.09
2022-10-24T20:35:29.377Z,100480.63
2022-10-24T20:38:01.149Z,100483.56
2022-10-24T20:40:32.614Z,100483.81
2022-10-24T20:43:05.055Z,100481.66
2022-10-24T20:45:36.888Z,100478.09
2022-10-24T20:48:08.718Z,100479.91
2022-10-24T20:50:40.168Z,100489.78
2022-10-24T20:53:11.909Z,100495.88
2022-10-24T20:55:44.634Z,100496.38
2022-10-24T20:58:16.658Z,100504.66
2022-10-24T21:00:48.164Z,100501.13
2022-10-24T21:03:19.941Z,100506.19
2022-10-24T21:05:51.407Z,100511.25
2022-10-24T21:08:23.193Z,100513.38
2022-10-24T21:10:54.700Z,100508.97
2022-10-24T21:13:26.463Z,100516.94
2022-10-24T21:15:57.924Z,100517.69
2022-10-24T21:18:29.850Z,100524.09
2022-10-24T21:21:01.306Z,100521.66
2022-10-24T21:23:33.268Z,100522.66
2022-10-24T21:26:04.765Z,100525.59
2022-10-24T21:28:36.243Z,100528.78
2022-10-24T21:31:07.750Z,100521.25
2022-10-24T21:33:41.568Z,100520.69
2022-10-24T21:36:13.047Z,100523.84
2022-10-24T21:38:44.813Z,100528.63
2022-10-24T21:41:16.327Z,100528.31
2022-10-24T21:43:48.258Z,100531.47
2022-10-24T21:46:19.738Z,100536.28
2022-10-24T21:48:51.581Z,100534.34
2022-10-24T21:51:23.064Z,100530.28
2022-10-24T21:53:54.874Z,100530.22
2022-10-24T21:56:26.359Z,100536.38
2022-10-24T22:01:38.112Z,100546.16
2022-10-24T22:04:10.050Z,100540.69
2022-10-24T22:06:41.529Z,100540.94
2022-10-24T22:09:13.371Z,100543.63
2022-10-24T22:11:44.842Z,100536.63
2022-10-24T22:14:16.623Z,100546.28
2022-10-24T22:16:48.089Z,100542.81
2022-10-24T22:19:19.875Z,100545.47
2022-10-24T22:21:51.418Z,100544.19
2022-10-24T22:24:22.967Z,100554.00
2022-10-24T22:26:54.444Z,100553.28
2022-10-24T22:29:26.357Z,100559.22
2022-10-24T22:31:57.846Z,100564.81
2022-10-24T22:34:29.803Z,100559.44
2022-10-24T22:37:01.252Z,100571.22
2022-10-24T22:39:33.013Z,100571.47
2022-10-24T22:42:04.472Z,100565.28
2022-10-24T22:44:35.978Z,100569.03
2022-10-24T22:47:07.435Z,100565.47
2022-10-24T22:49:39.222Z,100563.50
2022-10-24T22:52:11.169Z,100572.84
2022-10-24T22:54:42.936Z,100568.78
2022-10-24T22:57:14.479Z,100573.59
2022-10-24T22:59:46.370Z,100578.13
2022-10-24T23:02:17.957Z,100575.69
2022-10-24T23:04:49.803Z,100581.84
2022-10-24T23:07:23.688Z,100575.69
2022-10-24T23:09:58.363Z,100576.19
2022-10-24T23:12:30.153Z,100583.66
2022-10-24T23:15:01.640Z,100578.78
2022-10-24T23:17:33.620Z,100578.44
2022-10-24T23:20:05.070Z,100574.03
2022-10-24T23:22:36.863Z,100581.81
2022-10-24T23:25:08.339Z,100581.50
2022-10-24T23:27:40.116Z,100593.25
2022-10-24T23:30:11.586Z,100589.44
2022-10-24T23:32:43.649Z,100597.13
2022-10-24T23:35:15.301Z,100592.03
2022-10-24T23:37:47.229Z,100590.88
2022-10-24T23:40:18.683Z,100597.50
2022-10-24T23:42:50.475Z,100596.94
2022-10-24T23:45:21.942Z,100603.81
2022-10-24T23:47:53.782Z,100597.31
2022-10-24T23:50:25.310Z,100601.03
2022-10-24T23:52:57.086Z,100601.72
2022-10-24T23:55:28.550Z,100607.31
2022-10-24T23:58:01.403Z,100596.38
